createdAt,value
2019-02-25T00:00:41.129Z,13.43
2019-02-25T00:03:09.992Z,12.58
2019-02-25T00:05:39.052Z,12.05
2019-02-25T00:08:07.934Z,12.58
2019-02-25T00:10:36.811Z,13.88
2019-02-25T00:13:05.722Z,13.75
2019-02-25T00:15:34.604Z,13.50
2019-02-25T00:18:03.458Z,12.28
2019-02-25T00:20:32.344Z,12.18
2019-02-25T00:23:01.208Z,11.80
2019-02-25T00:25:30.060Z,13.53
2019-02-25T00:27:58.951Z,13.35
2019-02-25T00:30:27.828Z,13.45
2019-02-25T00:32:56.702Z,12.90
2019-02-25T00:35:25.588Z,14.78
2019-02-25T00:37:54.452Z,13.62
2019-02-25T00:40:23.335Z,13.65
2019-02-25T00:42:52.221Z,13.48
2019-02-25T00:45:21.095Z,12.78
2019-02-25T00:47:49.950Z,13.90
2019-02-25T00:50:21.160Z,13.93
2019-02-25T00:52:50.032Z,14.70
2019-02-25T00:55:18.940Z,12.25
2019-02-25T00:57:47.811Z,13.20
2019-02-25T01:00:21.126Z,12.78
2019-02-25T01:02:50.356Z,12.53
2019-02-25T01:05:19.474Z,12.55
2019-02-25T01:07:48.426Z,11.68
2019-02-25T01:10:17.979Z,10.93
2019-02-25T01:12:47.489Z,12.10
2019-02-25T01:15:18.184Z,11.33
2019-02-25T01:17:47.114Z,11.48
2019-02-25T01:20:19.195Z,10.85
2019-02-25T01:22:48.056Z,11.25
2019-02-25T01:25:18.532Z,11.18
2019-02-25T01:27:47.416Z,11.30
2019-02-25T01:30:20.663Z,11.70
2019-02-25T01:32:49.552Z,10.72
2019-02-25T01:35:18.443Z,11.45
2019-02-25T01:37:47.309Z,10.90
2019-02-25T01:40:16.465Z,11.85
2019-02-25T01:42:45.326Z,11.28
2019-02-25T01:45:16.048Z,12.28
2019-02-25T01:47:44.917Z,12.33
2019-02-25T01:50:13.841Z,10.75
2019-02-25T01:52:42.749Z,11.25
2019-02-25T01:55:12.652Z,11.30
2019-02-25T01:57:41.519Z,11.75
2019-02-25T02:00:15.504Z,11.38
2019-02-25T02:02:44.363Z,10.85
2019-02-25T02:05:13.456Z,12.00
2019-02-25T02:07:42.306Z,11.43
2019-02-25T02:10:16.009Z,11.45
2019-02-25T02:12:44.863Z,10.60
2019-02-25T02:15:21.528Z,11.75
2019-02-25T02:17:50.425Z,10.65
2019-02-25T02:20:19.645Z,11.10
2019-02-25T02:22:48.547Z,11.05
2019-02-25T02:25:17.417Z,10.63
2019-02-25T02:27:46.263Z,11.08
2019-02-25T02:30:19.670Z,12.03
2019-02-25T02:32:48.512Z,10.40
2019-02-25T02:35:17.444Z,11.33
2019-02-25T02:37:46.298Z,10.95
2019-02-25T02:40:15.437Z,12.25
2019-02-25T02:43:03.589Z,11.80
2019-02-25T02:45:38.467Z,11.08
2019-02-25T02:48:16.152Z,11.40
2019-02-25T02:50:45.024Z,12.05
2019-02-25T02:53:13.916Z,11.97
2019-02-25T02:55:42.781Z,11.40
2019-02-25T02:58:11.643Z,19.25
2019-02-25T03:00:40.539Z,12.70
2019-02-25T03:03:09.430Z,11.20
2019-02-25T03:05:38.319Z,11.50
2019-02-25T03:08:07.225Z,12.47
2019-02-25T03:10:36.082Z,11.25
2019-02-25T03:13:04.967Z,10.45
2019-02-25T03:15:33.847Z,11.48
2019-02-25T03:18:02.725Z,10.40
2019-02-25T03:20:31.759Z,10.25
2019-02-25T03:23:00.618Z,11.63
2019-02-25T03:25:29.507Z,11.12
2019-02-25T03:27:58.376Z,10.28
2019-02-25T03:30:27.268Z,11.20
2019-02-25T03:32:56.156Z,11.97
2019-02-25T03:35:25.942Z,11.00
2019-02-25T03:37:54.796Z,10.45
2019-02-25T03:40:24.323Z,11.30
2019-02-25T03:42:53.252Z,11.78
2019-02-25T03:45:22.161Z,12.30
2019-02-25T03:47:51.023Z,11.22
2019-02-25T03:50:19.904Z,12.10
2019-02-25T03:52:48.786Z,11.50
2019-02-25T03:55:18.995Z,11.95
2019-02-25T03:57:48.205Z,10.78
2019-02-25T04:00:24.813Z,11.18
2019-02-25T04:02:53.713Z,11.70
2019-02-25T04:05:22.589Z,11.28
2019-02-25T04:07:51.639Z,11.28
2019-02-25T04:10:20.540Z,13.40
2019-02-25T04:12:49.431Z,13.75
2019-02-25T04:15:20.869Z,12.10
2019-02-25T04:17:49.761Z,11.75
2019-02-25T04:20:18.690Z,11.00
2019-02-25T04:22:47.551Z,12.98
2019-02-25T04:25:16.460Z,12.10
2019-02-25T04:27:45.335Z,11.60
2019-02-25T04:30:17.490Z,11.80
2019-02-25T04:32:46.373Z,10.70
2019-02-25T04:35:15.274Z,12.13
2019-02-25T04:37:44.228Z,11.93
2019-02-25T04:40:16.007Z,11.57
2019-02-25T04:42:45.004Z,12.60
2019-02-25T04:45:21.159Z,12.85
2019-02-25T04:47:50.041Z,13.25
2019-02-25T04:50:18.929Z,10.63
2019-02-25T04:52:47.791Z,12.78
2019-02-25T04:55:16.727Z,11.70
2019-02-25T04:57:45.589Z,11.48
2019-02-25T05:00:25.338Z,12.00
2019-02-25T05:02:54.209Z,11.85
2019-02-25T05:05:23.093Z,11.80
2019-02-25T05:07:51.959Z,11.20
2019-02-25T05:10:21.238Z,13.32
2019-02-25T05:12:51.717Z,12.50
2019-02-25T05:15:22.510Z,13.32
2019-02-25T05:17:51.391Z,13.08
2019-02-25T05:20:20.264Z,11.95
2019-02-25T05:22:49.157Z,12.13
2019-02-25T05:25:18.042Z,12.88
2019-02-25T05:27:46.936Z,13.38
2019-02-25T05:30:16.759Z,13.83
2019-02-25T05:32:47.038Z,15.25
2019-02-25T05:35:16.019Z,13.60
2019-02-25T05:37:44.934Z,12.68
2019-02-25T05:40:20.812Z,12.07
2019-02-25T05:42:49.707Z,12.55
2019-02-25T05:45:18.588Z,12.35
2019-02-25T05:47:47.454Z,12.23
2019-02-25T05:50:20.942Z,13.03
2019-02-25T05:52:52.353Z,14.73
2019-02-25T05:55:21.241Z,15.32
2019-02-25T05:57:50.125Z,13.32
2019-02-25T06:00:22.807Z,12.98
2019-02-25T06:02:51.687Z,14.18
2019-02-25T06:05:20.553Z,13.95
2019-02-25T06:07:49.451Z,14.35
2019-02-25T06:10:18.320Z,13.03
2019-02-25T06:12:47.185Z,12.82
2019-02-25T06:15:19.873Z,13.80
2019-02-25T06:17:48.730Z,11.53
2019-02-25T06:20:18.149Z,11.53
2019-02-25T06:22:47.108Z,12.90
2019-02-25T06:25:17.131Z,14.45
2019-02-25T06:27:46.091Z,15.23
2019-02-25T06:30:22.049Z,13.83
2019-02-25T06:32:50.908Z,14.30
2019-02-25T06:35:19.808Z,12.45
2019-02-25T06:37:48.698Z,12.07
2019-02-25T06:40:22.161Z,11.55
2019-02-25T06:42:51.060Z,11.80
2019-02-25T06:45:28.243Z,12.33
2019-02-25T06:47:57.102Z,11.85
2019-02-25T06:50:25.997Z,12.37
2019-02-25T06:52:54.865Z,12.70
2019-02-25T06:55:23.756Z,13.60
2019-02-25T06:57:52.618Z,33.80
2019-02-25T07:00:22.694Z,15.30
2019-02-25T07:02:51.542Z,12.68
2019-02-25T07:05:38.961Z,13.70
2019-02-25T07:08:12.197Z,13.20
2019-02-25T07:10:45.659Z,13.22
2019-02-25T07:13:18.846Z,12.10
2019-02-25T07:16:05.840Z,12.95
2019-02-25T07:18:39.380Z,13.80
2019-02-25T07:21:12.563Z,13.83
2019-02-25T07:23:55.390Z,12.73
2019-02-25T07:26:31.793Z,13.35
2019-02-25T07:29:05.459Z,13.65
2019-02-25T07:31:52.134Z,14.07
2019-02-25T07:34:28.152Z,12.15
2019-02-25T07:36:58.693Z,12.93
2019-02-25T07:39:29.966Z,13.98
2019-02-25T07:42:12.510Z,13.25
2019-02-25T07:44:57.994Z,14.45
2019-02-25T07:47:37.489Z,12.60
2019-02-25T07:50:24.471Z,13.88
2019-02-25T07:53:03.722Z,12.82
2019-02-25T07:55:46.537Z,13.05
2019-02-25T07:58:17.080Z,13.05
2019-02-25T08:00:47.592Z,13.58
2019-02-25T08:03:30.111Z,14.65
2019-02-25T08:06:00.640Z,15.05
2019-02-25T08:08:33.882Z,14.38
2019-02-25T08:11:21.862Z,14.25
2019-02-25T08:13:52.418Z,15.18
2019-02-25T08:16:39.393Z,12.88
2019-02-25T08:19:12.885Z,15.85
2019-02-25T08:21:55.465Z,13.90
2019-02-25T08:24:30.633Z,14.73
2019-02-25T08:26:58.248Z,14.38
2019-02-25T08:29:34.434Z,15.20
2019-02-25T08:32:14.232Z,14.07
2019-02-25T08:35:01.349Z,14.15
2019-02-25T08:37:58.611Z,15.00
2019-02-25T08:40:37.786Z,14.25
2019-02-25T08:43:28.058Z,14.25
2019-02-25T08:45:58.605Z,14.93
2019-02-25T08:48:29.115Z,15.25
2019-02-25T08:50:58.011Z,13.13
2019-02-25T08:53:26.903Z,15.72
2019-02-25T08:55:55.823Z,14.45
2019-02-25T08:58:24.725Z,14.60
2019-02-25T09:00:53.601Z,15.40
2019-02-25T09:03:22.476Z,14.30
2019-02-25T09:05:51.339Z,15.00
2019-02-25T09:08:20.221Z,14.63
2019-02-25T09:10:49.114Z,16.07
2019-02-25T09:13:17.710Z,16.83
2019-02-25T09:15:46.281Z,16.87
2019-02-25T09:18:15.182Z,17.15
2019-02-25T09:20:43.748Z,17.63
2019-02-25T09:23:12.312Z,18.10
2019-02-25T09:25:40.898Z,16.63
2019-02-25T09:28:09.479Z,18.60
2019-02-25T09:30:38.040Z,17.80
2019-02-25T09:33:06.623Z,17.33
2019-02-25T09:35:35.234Z,18.10
2019-02-25T09:38:03.819Z,19.20
2019-02-25T09:40:32.428Z,18.47
2019-02-25T09:43:01.002Z,19.77
2019-02-25T09:45:29.608Z,19.83
2019-02-25T09:47:58.198Z,19.87
2019-02-25T09:50:26.761Z,20.03
2019-02-25T09:52:56.880Z,20.77
2019-02-25T09:55:25.470Z,20.87
2019-02-25T09:57:54.048Z,20.97
2019-02-25T10:00:25.443Z,22.70
2019-02-25T10:02:54.036Z,21.77
2019-02-25T10:05:22.619Z,21.33
2019-02-25T10:07:51.214Z,22.70
2019-02-25T10:10:19.966Z,22.77
2019-02-25T10:12:48.523Z,21.07
2019-02-25T10:15:18.950Z,22.93
2019-02-25T10:17:47.540Z,21.07
2019-02-25T10:20:16.108Z,22.93
2019-02-25T10:22:44.715Z,21.97
2019-02-25T10:25:13.480Z,21.97
2019-02-25T10:27:42.043Z,23.43
2019-02-25T10:30:14.655Z,21.50
2019-02-25T10:32:43.231Z,21.17
2019-02-25T10:35:14.859Z,23.73
2019-02-25T10:37:43.851Z,22.83
2019-02-25T10:40:15.414Z,23.50
2019-02-25T10:42:44.582Z,21.73
2019-02-25T10:45:18.748Z,23.37
2019-02-25T10:47:49.473Z,25.57
2019-02-25T10:50:18.254Z,23.20
2019-02-25T10:52:48.965Z,24.10
2019-02-25T10:55:23.562Z,21.70
2019-02-25T10:57:52.839Z,22.90
2019-02-25T11:00:22.786Z,24.43
2019-02-25T11:02:53.387Z,21.73
2019-02-25T11:05:23.356Z,22.53
2019-02-25T11:07:52.032Z,21.10
2019-02-25T11:10:31.178Z,21.80
2019-02-25T11:13:00.405Z,20.80
2019-02-25T11:15:31.414Z,22.13
2019-02-25T11:18:00.023Z,20.93
2019-02-25T11:20:29.285Z,19.93
2019-02-25T11:22:58.934Z,19.50
2019-02-25T11:25:28.446Z,21.57
2019-02-25T11:27:57.822Z,20.50
2019-02-25T11:30:26.428Z,21.80
2019-02-25T11:32:56.162Z,21.03
2019-02-25T11:35:25.306Z,22.20
2019-02-25T11:37:56.383Z,20.77
2019-02-25T11:40:26.033Z,20.03
2019-02-25T11:42:54.655Z,22.07
2019-02-25T11:45:23.225Z,19.97
2019-02-25T11:47:51.791Z,20.27
2019-02-25T11:50:21.165Z,19.80
2019-02-25T11:52:49.735Z,19.90
2019-02-25T11:55:18.960Z,20.73
2019-02-25T11:57:47.524Z,20.57
2019-02-25T12:00:24.661Z,19.33
2019-02-25T12:02:53.226Z,20.40
2019-02-25T12:05:21.836Z,20.83
2019-02-25T12:07:50.414Z,20.07
2019-02-25T12:10:19.249Z,19.00
2019-02-25T12:12:47.858Z,19.73
2019-02-25T12:15:18.574Z,21.40
2019-02-25T12:17:47.153Z,22.23
2019-02-25T12:20:15.807Z,20.90
2019-02-25T12:22:44.493Z,20.07
2019-02-25T12:25:22.918Z,19.23
2019-02-25T12:27:51.508Z,19.07
2019-02-25T12:30:22.400Z,17.13
2019-02-25T12:32:51.066Z,20.53
2019-02-25T12:35:19.642Z,20.67
2019-02-25T12:37:48.232Z,22.40
2019-02-25T12:40:17.598Z,21.07
2019-02-25T12:42:46.168Z,22.57
2019-02-25T12:45:16.024Z,21.57
2019-02-25T12:47:44.610Z,19.83
2019-02-25T12:50:19.982Z,20.80
2019-02-25T12:52:48.587Z,19.57
2019-02-25T12:55:18.226Z,20.93
2019-02-25T12:57:46.873Z,20.97
2019-02-25T13:00:19.703Z,21.03
2019-02-25T13:02:48.290Z,20.83
2019-02-25T13:05:22.633Z,20.13
2019-02-25T13:07:51.213Z,20.90
2019-02-25T13:10:19.993Z,20.80
2019-02-25T13:12:48.638Z,20.63
2019-02-25T13:15:21.260Z,18.03
2019-02-25T13:17:49.866Z,19.13
2019-02-25T13:20:18.431Z,18.50
2019-02-25T13:22:47.036Z,19.67
2019-02-25T13:25:24.594Z,19.43
2019-02-25T13:27:54.325Z,19.27
2019-02-25T13:30:23.467Z,19.83
2019-02-25T13:32:54.026Z,19.70
2019-02-25T13:35:22.597Z,20.90
2019-02-25T13:37:51.233Z,17.87
2019-02-25T13:40:19.856Z,20.03
2019-02-25T13:42:48.442Z,18.03
2019-02-25T13:45:19.302Z,17.57
2019-02-25T13:47:47.968Z,20.60
2019-02-25T13:50:17.481Z,19.20
2019-02-25T13:52:48.308Z,20.63
2019-02-25T13:55:21.628Z,19.50
2019-02-25T13:57:50.396Z,20.93
2019-02-25T14:00:25.673Z,20.67
2019-02-25T14:02:54.331Z,20.50
2019-02-25T14:05:23.453Z,19.90
2019-02-25T14:07:52.069Z,21.73
2019-02-25T14:10:21.090Z,20.60
2019-02-25T14:12:49.677Z,19.03
2019-02-25T14:15:20.946Z,19.83
2019-02-25T14:17:49.625Z,18.93
2019-02-25T14:20:19.871Z,20.63
2019-02-25T14:22:48.484Z,19.17
2019-02-25T14:25:19.971Z,21.37
2019-02-25T14:27:48.659Z,20.43
2019-02-25T14:30:20.721Z,19.53
2019-02-25T14:32:52.975Z,19.13
2019-02-25T14:35:20.401Z,19.37
2019-02-25T14:37:48.989Z,18.97
2019-02-25T14:40:21.338Z,21.87
2019-02-25T14:42:51.993Z,18.23
2019-02-25T14:45:21.845Z,18.47
2019-02-25T14:47:55.461Z,18.27
2019-02-25T14:50:22.347Z,17.93
2019-02-25T14:52:51.466Z,17.00
2019-02-25T14:55:20.138Z,18.47
2019-02-25T14:57:48.737Z,16.53
2019-02-25T15:00:26.806Z,17.23
2019-02-25T15:02:56.156Z,16.10
2019-02-25T15:05:25.105Z,16.30
2019-02-25T15:07:53.781Z,18.03
2019-02-25T15:10:26.759Z,17.27
2019-02-25T15:12:56.443Z,14.80
2019-02-25T15:15:24.023Z,17.17
2019-02-25T15:17:52.839Z,16.90
2019-02-25T15:20:23.404Z,15.83
2019-02-25T15:22:52.640Z,17.10
2019-02-25T15:25:21.715Z,16.37
2019-02-25T15:27:50.503Z,16.70
2019-02-25T15:30:22.933Z,16.63
2019-02-25T15:32:55.696Z,17.03
2019-02-25T15:35:26.518Z,15.70
2019-02-25T15:37:55.172Z,15.27
2019-02-25T15:40:25.075Z,14.93
2019-02-25T15:43:10.404Z,14.03
2019-02-25T15:45:42.420Z,14.63
2019-02-25T15:48:19.393Z,16.20
2019-02-25T15:50:53.042Z,14.10
2019-02-25T15:53:22.236Z,15.97
2019-02-25T15:55:51.114Z,14.20
2019-02-25T15:58:20.016Z,13.87
2019-02-25T16:00:48.676Z,14.43
2019-02-25T16:03:20.565Z,13.67
2019-02-25T16:05:52.290Z,15.33
2019-02-25T16:08:21.279Z,15.83
2019-02-25T16:10:51.272Z,14.73
2019-02-25T16:13:20.467Z,15.97
2019-02-25T16:15:49.062Z,15.53
2019-02-25T16:18:18.186Z,15.20
2019-02-25T16:20:46.766Z,15.37
2019-02-25T16:23:15.432Z,14.37
2019-02-25T16:25:46.211Z,15.77
2019-02-25T16:28:16.859Z,16.60
2019-02-25T16:30:46.902Z,16.37
2019-02-25T16:33:15.503Z,16.93
2019-02-25T16:35:45.646Z,16.13
2019-02-25T16:38:14.478Z,15.83
2019-02-25T16:40:43.260Z,15.77
2019-02-25T16:43:12.836Z,16.20
2019-02-25T16:45:42.599Z,15.13
2019-02-25T16:48:11.756Z,12.50
2019-02-25T16:50:43.373Z,14.87
2019-02-25T16:53:12.762Z,15.03
2019-02-25T16:55:45.089Z,14.90
2019-02-25T16:58:14.105Z,14.93
2019-02-25T17:00:44.875Z,14.00
2019-02-25T17:03:16.023Z,14.37
2019-02-25T17:05:47.131Z,15.47
2019-02-25T17:08:16.293Z,13.97
2019-02-25T17:10:44.878Z,15.73
2019-02-25T17:13:16.621Z,14.70
2019-02-25T17:15:46.450Z,13.77
2019-02-25T17:18:15.964Z,13.37
2019-02-25T17:20:45.165Z,15.43
2019-02-25T17:23:13.989Z,14.43
2019-02-25T17:25:43.627Z,14.23
2019-02-25T17:28:15.304Z,15.10
2019-02-25T17:30:44.602Z,14.20
2019-02-25T17:33:14.860Z,14.83
2019-02-25T17:35:45.234Z,15.20
2019-02-25T17:38:13.904Z,15.93
2019-02-25T17:40:42.558Z,15.57
2019-02-25T17:43:14.014Z,15.20
2019-02-25T17:45:42.294Z,14.40
2019-02-25T17:48:13.227Z,16.13
2019-02-25T17:50:41.624Z,15.93
2019-02-25T17:53:10.325Z,16.33
2019-02-25T17:55:39.257Z,15.67
2019-02-25T17:58:08.765Z,17.23
2019-02-25T18:00:44.526Z,15.20
2019-02-25T18:03:14.947Z,14.87
2019-02-25T18:05:43.491Z,15.67
2019-02-25T18:08:14.555Z,15.13
2019-02-25T18:10:43.701Z,15.00
2019-02-25T18:13:12.954Z,13.37
2019-02-25T18:15:41.836Z,15.53
2019-02-25T18:18:12.558Z,14.47
2019-02-25T18:20:40.783Z,15.53
2019-02-25T18:23:09.755Z,15.23
2019-02-25T18:25:39.741Z,15.37
2019-02-25T18:28:10.829Z,15.07
2019-02-25T18:30:39.462Z,14.47
2019-02-25T18:33:08.594Z,14.67
2019-02-25T18:35:40.584Z,15.17
2019-02-25T18:38:09.558Z,15.13
2019-02-25T18:40:40.536Z,15.63
2019-02-25T18:43:08.746Z,14.23
2019-02-25T18:45:38.519Z,16.20
2019-02-25T18:48:08.738Z,15.53
2019-02-25T18:50:39.320Z,14.03
2019-02-25T18:53:07.888Z,15.37
2019-02-25T18:55:36.727Z,15.50
2019-02-25T18:58:07.967Z,16.63
2019-02-25T19:00:40.140Z,15.17
2019-02-25T19:03:09.920Z,15.70
2019-02-25T19:05:39.362Z,17.83
2019-02-25T19:08:14.377Z,17.07
2019-02-25T19:10:43.824Z,18.30
2019-02-25T19:13:13.312Z,16.73
2019-02-25T19:15:43.478Z,17.23
2019-02-25T19:18:13.233Z,18.47
2019-02-25T19:20:43.421Z,18.80
2019-02-25T19:23:13.854Z,20.30
2019-02-25T19:25:43.517Z,19.07
2019-02-25T19:28:16.650Z,17.80
2019-02-25T19:30:44.483Z,18.20
2019-02-25T19:33:13.095Z,17.53
2019-02-25T19:35:41.787Z,17.83
2019-02-25T19:38:12.767Z,18.27
2019-02-25T19:40:43.050Z,17.27
2019-02-25T19:43:11.275Z,16.40
2019-02-25T19:45:40.969Z,16.53
2019-02-25T19:48:10.560Z,16.53
2019-02-25T19:50:50.170Z,15.60
2019-02-25T19:53:11.947Z,15.67
2019-02-25T19:55:40.962Z,16.70
2019-02-25T19:58:10.307Z,15.23
2019-02-25T20:00:39.061Z,16.10
2019-02-25T20:03:07.800Z,16.63
2019-02-25T20:05:38.766Z,15.30
2019-02-25T20:08:06.850Z,16.43
2019-02-25T20:10:35.825Z,15.07
2019-02-25T20:13:07.778Z,17.43
2019-02-25T20:15:37.535Z,16.43
2019-02-25T20:18:07.092Z,16.07
2019-02-25T20:20:38.458Z,16.53
2019-02-25T20:23:08.555Z,16.30
2019-02-25T20:25:37.193Z,15.77
2019-02-25T20:28:05.878Z,17.70
2019-02-25T20:30:34.485Z,15.93
2019-02-25T20:33:03.805Z,17.43
2019-02-25T20:35:33.303Z,15.60
2019-02-25T20:38:03.237Z,17.17
2019-02-25T20:40:33.084Z,15.57
2019-02-25T20:43:03.194Z,17.37
2019-02-25T20:45:35.874Z,17.17
2019-02-25T20:48:05.558Z,17.33
2019-02-25T20:50:34.248Z,18.03
2019-02-25T20:53:05.782Z,17.17
2019-02-25T20:55:34.518Z,18.47
2019-02-25T20:58:03.491Z,18.43
2019-02-25T21:00:34.961Z,18.10
2019-02-25T21:03:02.373Z,17.27
2019-02-25T21:05:30.961Z,17.57
2019-02-25T21:08:00.116Z,23.10
2019-02-25T21:10:32.823Z,18.50
2019-02-25T21:13:02.424Z,20.07
2019-02-25T21:15:33.391Z,18.97
2019-02-25T21:18:03.983Z,18.43
2019-02-25T21:20:31.649Z,17.97
2019-02-25T21:23:04.867Z,17.37
2019-02-25T21:25:31.456Z,18.03
2019-02-25T21:28:02.332Z,20.87
2019-02-25T21:30:31.453Z,18.97
2019-02-25T21:33:01.969Z,18.80
2019-02-25T21:35:34.242Z,17.90
2019-02-25T21:38:00.761Z,19.67
2019-02-25T21:40:30.119Z,18.70
2019-02-25T21:42:59.685Z,20.47
2019-02-25T21:45:30.219Z,18.03
2019-02-25T21:48:01.587Z,16.87
2019-02-25T21:50:31.418Z,17.43
2019-02-25T21:52:59.741Z,18.20
2019-02-25T21:55:30.421Z,17.23
2019-02-25T21:58:02.030Z,19.43
2019-02-25T22:00:31.990Z,18.93
2019-02-25T22:02:59.318Z,18.17
2019-02-25T22:05:27.894Z,18.13
2019-02-25T22:07:57.770Z,19.00
2019-02-25T22:10:26.847Z,17.33
2019-02-25T22:12:56.394Z,17.87
2019-02-25T22:15:24.971Z,17.07
2019-02-25T22:17:53.704Z,17.10
2019-02-25T22:20:24.938Z,18.67
2019-02-25T22:22:56.686Z,17.17
2019-02-25T22:25:23.891Z,16.13
2019-02-25T22:27:52.445Z,17.53
2019-02-25T22:30:21.098Z,15.70
2019-02-25T22:32:49.744Z,17.00
2019-02-25T22:35:18.306Z,17.17
2019-02-25T22:37:52.138Z,16.50
2019-02-25T22:40:18.600Z,15.33
2019-02-25T22:42:49.893Z,16.57
2019-02-25T22:45:21.709Z,16.03
2019-02-25T22:47:50.266Z,16.17
2019-02-25T22:50:18.833Z,15.40
2019-02-25T22:52:51.253Z,17.20
2019-02-25T22:55:20.194Z,17.50
2019-02-25T22:57:51.302Z,16.33
2019-02-25T23:00:27.354Z,16.67
2019-02-25T23:02:56.782Z,16.50
2019-02-25T23:05:26.505Z,16.20
2019-02-25T23:07:55.071Z,16.37
2019-02-25T23:10:24.189Z,16.37
2019-02-25T23:12:53.604Z,16.70
2019-02-25T23:15:24.942Z,16.60
2019-02-25T23:17:52.641Z,17.70
2019-02-25T23:20:22.972Z,16.83
2019-02-25T23:22:53.017Z,16.60
2019-02-25T23:25:21.867Z,16.10
2019-02-25T23:27:51.654Z,16.57
2019-02-25T23:30:21.287Z,17.07
2019-02-25T23:32:52.315Z,17.17
2019-02-25T23:35:23.101Z,16.00
2019-02-25T23:37:53.756Z,15.90
2019-02-25T23:40:21.982Z,17.63
2019-02-25T23:42:50.574Z,17.87
2019-02-25T23:45:21.247Z,15.00
2019-02-25T23:47:49.459Z,15.63
2019-02-25T23:50:18.020Z,16.07
2019-02-25T23:52:46.605Z,15.47
2019-02-25T23:55:18.654Z,16.67
2019-02-25T23:57:45.480Z,16.07
